sensor_id;sensor_type;location;lat;lon;timestamp;temperature;humidity
67547;HTU21D;54381;53.516;49.424;2022-10-31T00:00:45;6.78;89.75
67547;HTU21D;54381;53.516;49.424;2022-10-31T00:03:11;6.79;89.53
67547;HTU21D;54381;53.516;49.424;2022-10-31T00:05:47;6.78;89.55
67547;HTU21D;54381;53.516;49.424;2022-10-31T00:08:15;6.76;89.95
67547;HTU21D;54381;53.516;49.424;2022-10-31T00:10:43;6.76;89.99
67547;HTU21D;54381;53.516;49.424;2022-10-31T00:13:10;6.75;89.95
67547;HTU21D;54381;53.516;49.424;2022-10-31T00:15:39;6.73;90.00
67547;HTU21D;54381;53.516;49.424;2022-10-31T00:18:06;6.70;89.51
67547;HTU21D;54381;53.516;49.424;2022-10-31T00:20:33;6.70;89.37
67547;HTU21D;54381;53.516;49.424;2022-10-31T00:23:00;6.69;89.44
67547;HTU21D;54381;53.516;49.424;2022-10-31T00:25:28;6.68;89.28
67547;HTU21D;54381;53.516;49.424;2022-10-31T00:27:55;6.66;87.51
67547;HTU21D;54381;53.516;49.424;2022-10-31T00:30:21;6.63;86.74
67547;HTU21D;54381;53.516;49.424;2022-10-31T00:32:47;6.60;86.99
67547;HTU21D;54381;53.516;49.424;2022-10-31T00:35:13;6.56;85.55
67547;HTU21D;54381;53.516;49.424;2022-10-31T00:37:39;6.56;86.19
67547;HTU21D;54381;53.516;49.424;2022-10-31T00:40:06;6.52;85.79
67547;HTU21D;54381;53.516;49.424;2022-10-31T00:42:32;6.49;85.64
67547;HTU21D;54381;53.516;49.424;2022-10-31T00:44:58;6.40;82.78
67547;HTU21D;54381;53.516;49.424;2022-10-31T00:47:24;6.31;80.29
67547;HTU21D;54381;53.516;49.424;2022-10-31T00:49:50;6.27;80.88
67547;HTU21D;54381;53.516;49.424;2022-10-31T00:52:16;6.21;79.98
67547;HTU21D;54381;53.516;49.424;2022-10-31T00:54:42;6.12;80.49
67547;HTU21D;54381;53.516;49.424;2022-10-31T00:57:09;6.01;80.17
67547;HTU21D;54381;53.516;49.424;2022-10-31T00:59:35;5.91;79.76
67547;HTU21D;54381;53.516;49.424;2022-10-31T01:02:01;5.90;81.34
67547;HTU21D;54381;53.516;49.424;2022-10-31T01:04:27;5.85;81.40
67547;HTU21D;54381;53.516;49.424;2022-10-31T01:12:44;5.69;81.73
67547;HTU21D;54381;53.516;49.424;2022-10-31T01:18:14;5.59;81.28
67547;HTU21D;54381;53.516;49.424;2022-10-31T01:32:01;5.37;82.71
67547;HTU21D;54381;53.516;49.424;2022-10-31T01:37:12;5.32;82.04
67547;HTU21D;54381;53.516;49.424;2022-10-31T01:39:39;5.28;82.22
67547;HTU21D;54381;53.516;49.424;2022-10-31T01:42:05;5.26;82.48
67547;HTU21D;54381;53.516;49.424;2022-10-31T01:44:59;5.22;82.55
67547;HTU21D;54381;53.516;49.424;2022-10-31T01:47:45;5.22;82.91
67547;HTU21D;54381;53.516;49.424;2022-10-31T01:50:31;5.21;82.42
67547;HTU21D;54381;53.516;49.424;2022-10-31T01:53:16;5.16;81.14
67547;HTU21D;54381;53.516;49.424;2022-10-31T01:55:44;5.10;80.72
67547;HTU21D;54381;53.516;49.424;2022-10-31T01:58:14;5.08;79.85
67547;HTU21D;54381;53.516;49.424;2022-10-31T02:00:45;5.03;79.54
67547;HTU21D;54381;53.516;49.424;2022-10-31T02:11:45;4.90;79.88
67547;HTU21D;54381;53.516;49.424;2022-10-31T02:16:57;4.86;80.50
67547;HTU21D;54381;53.516;49.424;2022-10-31T02:19:54;4.77;79.56
67547;HTU21D;54381;53.516;49.424;2022-10-31T02:34:56;4.67;81.05
67547;HTU21D;54381;53.516;49.424;2022-10-31T02:37:50;4.64;81.07
67547;HTU21D;54381;53.516;49.424;2022-10-31T02:44:05;4.57;81.17
67547;HTU21D;54381;53.516;49.424;2022-10-31T02:46:50;4.52;81.39
67547;HTU21D;54381;53.516;49.424;2022-10-31T02:52:29;4.50;82.07
67547;HTU21D;54381;53.516;49.424;2022-10-31T02:58:11;4.44;81.55
67547;HTU21D;54381;53.516;49.424;2022-10-31T03:10:16;3.77;76.57
67547;HTU21D;54381;53.516;49.424;2022-10-31T03:13:15;3.63;77.39
67547;HTU21D;54381;53.516;49.424;2022-10-31T03:15:49;3.50;77.92
67547;HTU21D;54381;53.516;49.424;2022-10-31T03:18:44;3.42;77.18
67547;HTU21D;54381;53.516;49.424;2022-10-31T03:21:21;3.35;77.94
67547;HTU21D;54381;53.516;49.424;2022-10-31T03:23:49;3.35;77.85
67547;HTU21D;54381;53.516;49.424;2022-10-31T03:26:16;3.33;78.95
67547;HTU21D;54381;53.516;49.424;2022-10-31T03:28:46;3.28;78.38
67547;HTU21D;54381;53.516;49.424;2022-10-31T03:31:17;3.29;79.10
67547;HTU21D;54381;53.516;49.424;2022-10-31T03:33:45;3.32;78.72
67547;HTU21D;54381;53.516;49.424;2022-10-31T03:36:14;3.31;79.08
67547;HTU21D;54381;53.516;49.424;2022-10-31T03:38:42;3.28;79.08
67547;HTU21D;54381;53.516;49.424;2022-10-31T03:41:15;3.21;78.92
67547;HTU21D;54381;53.516;49.424;2022-10-31T03:43:50;3.18;78.94
67547;HTU21D;54381;53.516;49.424;2022-10-31T03:46:18;3.19;78.87
67547;HTU21D;54381;53.516;49.424;2022-10-31T03:48:44;3.20;78.98
67547;HTU21D;54381;53.516;49.424;2022-10-31T03:51:26;3.24;79.22
67547;HTU21D;54381;53.516;49.424;2022-10-31T03:54:17;3.27;80.22
67547;HTU21D;54381;53.516;49.424;2022-10-31T03:58:06;3.25;78.34
67547;HTU21D;54381;53.516;49.424;2022-10-31T04:00:10;3.21;78.56
67547;HTU21D;54381;53.516;49.424;2022-10-31T04:02:42;3.26;79.30
67547;HTU21D;54381;53.516;49.424;2022-10-31T04:05:10;3.27;78.50
67547;HTU21D;54381;53.516;49.424;2022-10-31T04:07:42;3.24;79.30
67547;HTU21D;54381;53.516;49.424;2022-10-31T04:10:13;3.25;79.67
67547;HTU21D;54381;53.516;49.424;2022-10-31T04:12:42;3.24;79.33
67547;HTU21D;54381;53.516;49.424;2022-10-31T04:15:11;3.28;79.56
67547;HTU21D;54381;53.516;49.424;2022-10-31T04:17:40;3.26;78.69
67547;HTU21D;54381;53.516;49.424;2022-10-31T04:20:08;3.29;78.92
67547;HTU21D;54381;53.516;49.424;2022-10-31T04:22:34;3.27;79.24
67547;HTU21D;54381;53.516;49.424;2022-10-31T04:25:01;3.27;80.33
67547;HTU21D;54381;53.516;49.424;2022-10-31T04:27:27;3.27;79.21
67547;HTU21D;54381;53.516;49.424;2022-10-31T04:29:53;3.30;80.24
67547;HTU21D;54381;53.516;49.424;2022-10-31T04:32:19;3.31;79.56
67547;HTU21D;54381;53.516;49.424;2022-10-31T04:34:45;3.15;79.59
67547;HTU21D;54381;53.516;49.424;2022-10-31T04:37:11;3.18;79.85
67547;HTU21D;54381;53.516;49.424;2022-10-31T04:39:40;3.18;80.06
67547;HTU21D;54381;53.516;49.424;2022-10-31T04:42:06;3.23;81.28
67547;HTU21D;54381;53.516;49.424;2022-10-31T04:44:32;3.25;79.98
67547;HTU21D;54381;53.516;49.424;2022-10-31T04:46:58;3.21;79.49
67547;HTU21D;54381;53.516;49.424;2022-10-31T04:49:24;3.19;79.60
67547;HTU21D;54381;53.516;49.424;2022-10-31T04:51:50;3.14;79.79
67547;HTU21D;54381;53.516;49.424;2022-10-31T04:54:16;3.16;79.65
67547;HTU21D;54381;53.516;49.424;2022-10-31T04:56:42;3.26;80.68
67547;HTU21D;54381;53.516;49.424;2022-10-31T04:59:09;3.28;78.79
67547;HTU21D;54381;53.516;49.424;2022-10-31T05:01:35;3.17;78.79
67547;HTU21D;54381;53.516;49.424;2022-10-31T05:04:01;3.13;79.20
67547;HTU21D;54381;53.516;49.424;2022-10-31T05:06:27;3.12;80.41
67547;HTU21D;54381;53.516;49.424;2022-10-31T05:08:53;3.18;79.52
67547;HTU21D;54381;53.516;49.424;2022-10-31T05:11:19;3.20;79.17
67547;HTU21D;54381;53.516;49.424;2022-10-31T05:13:45;3.24;78.55
67547;HTU21D;54381;53.516;49.424;2022-10-31T05:16:11;3.26;78.32
67547;HTU21D;54381;53.516;49.424;2022-10-31T05:18:37;3.20;77.18
67547;HTU21D;54381;53.516;49.424;2022-10-31T05:21:04;3.24;77.77
67547;HTU21D;54381;53.516;49.424;2022-10-31T05:23:30;3.29;77.11
67547;HTU21D;54381;53.516;49.424;2022-10-31T05:25:56;3.32;77.08
67547;HTU21D;54381;53.516;49.424;2022-10-31T05:28:22;3.32;77.56
67547;HTU21D;54381;53.516;49.424;2022-10-31T05:30:49;3.45;77.33
67547;HTU21D;54381;53.516;49.424;2022-10-31T05:33:18;3.52;75.97
67547;HTU21D;54381;53.516;49.424;2022-10-31T05:35:45;3.54;75.50
67547;HTU21D;54381;53.516;49.424;2022-10-31T05:38:11;3.58;75.71
67547;HTU21D;54381;53.516;49.424;2022-10-31T05:40:37;3.63;76.08
67547;HTU21D;54381;53.516;49.424;2022-10-31T05:43:03;3.69;73.96
67547;HTU21D;54381;53.516;49.424;2022-10-31T05:45:29;3.73;73.61
67547;HTU21D;54381;53.516;49.424;2022-10-31T05:47:57;3.70;73.99
67547;HTU21D;54381;53.516;49.424;2022-10-31T05:50:25;3.67;74.36
67547;HTU21D;54381;53.516;49.424;2022-10-31T05:53:00;3.61;73.96
67547;HTU21D;54381;53.516;49.424;2022-10-31T05:55:27;3.46;74.12
67547;HTU21D;54381;53.516;49.424;2022-10-31T05:57:54;3.47;75.54
67547;HTU21D;54381;53.516;49.424;2022-10-31T06:00:21;3.58;73.73
67547;HTU21D;54381;53.516;49.424;2022-10-31T06:02:48;3.59;74.06
67547;HTU21D;54381;53.516;49.424;2022-10-31T06:05:14;3.72;73.45
67547;HTU21D;54381;53.516;49.424;2022-10-31T06:07:42;3.92;73.89
67547;HTU21D;54381;53.516;49.424;2022-10-31T06:10:08;3.97;71.29
67547;HTU21D;54381;53.516;49.424;2022-10-31T06:12:35;3.90;69.87
67547;HTU21D;54381;53.516;49.424;2022-10-31T06:15:07;3.95;71.31
67547;HTU21D;54381;53.516;49.424;2022-10-31T06:17:35;4.03;72.29
67547;HTU21D;54381;53.516;49.424;2022-10-31T06:20:01;3.99;71.82
67547;HTU21D;54381;53.516;49.424;2022-10-31T06:22:27;3.99;71.92
67547;HTU21D;54381;53.516;49.424;2022-10-31T06:24:53;4.00;72.13
67547;HTU21D;54381;53.516;49.424;2022-10-31T06:27:20;3.94;70.11
67547;HTU21D;54381;53.516;49.424;2022-10-31T06:29:46;3.79;71.17
67547;HTU21D;54381;53.516;49.424;2022-10-31T06:32:12;3.93;71.00
67547;HTU21D;54381;53.516;49.424;2022-10-31T06:34:39;3.93;70.06
67547;HTU21D;54381;53.516;49.424;2022-10-31T06:37:07;3.86;69.81
67547;HTU21D;54381;53.516;49.424;2022-10-31T06:39:34;3.87;69.61
67547;HTU21D;54381;53.516;49.424;2022-10-31T06:42:00;3.90;69.58
67547;HTU21D;54381;53.516;49.424;2022-10-31T06:44:27;3.83;70.35
67547;HTU21D;54381;53.516;49.424;2022-10-31T06:46:53;3.82;70.47
67547;HTU21D;54381;53.516;49.424;2022-10-31T06:49:19;3.70;70.34
67547;HTU21D;54381;53.516;49.424;2022-10-31T06:51:48;3.58;70.41
67547;HTU21D;54381;53.516;49.424;2022-10-31T06:54:15;3.59;69.81
67547;HTU21D;54381;53.516;49.424;2022-10-31T06:56:41;3.54;70.51
67547;HTU21D;54381;53.516;49.424;2022-10-31T06:59:08;3.62;71.35
67547;HTU21D;54381;53.516;49.424;2022-10-31T07:01:34;3.69;70.34
67547;HTU21D;54381;53.516;49.424;2022-10-31T07:04:00;3.77;69.76
67547;HTU21D;54381;53.516;49.424;2022-10-31T07:06:26;3.80;70.07
67547;HTU21D;54381;53.516;49.424;2022-10-31T07:08:52;3.80;70.74
67547;HTU21D;54381;53.516;49.424;2022-10-31T07:11:18;3.78;70.15
67547;HTU21D;54381;53.516;49.424;2022-10-31T07:13:44;4.10;70.09
67547;HTU21D;54381;53.516;49.424;2022-10-31T07:16:10;4.30;69.48
67547;HTU21D;54381;53.516;49.424;2022-10-31T07:18:38;4.32;69.43
67547;HTU21D;54381;53.516;49.424;2022-10-31T07:21:05;4.62;67.94
67547;HTU21D;54381;53.516;49.424;2022-10-31T07:23:31;4.73;66.76
67547;HTU21D;54381;53.516;49.424;2022-10-31T07:25:58;4.42;67.27
67547;HTU21D;54381;53.516;49.424;2022-10-31T07:28:26;4.22;66.93
67547;HTU21D;54381;53.516;49.424;2022-10-31T07:30:53;4.06;70.36
67547;HTU21D;54381;53.516;49.424;2022-10-31T07:33:20;4.12;68.83
67547;HTU21D;54381;53.516;49.424;2022-10-31T07:35:49;4.09;68.01
67547;HTU21D;54381;53.516;49.424;2022-10-31T07:38:15;4.04;69.78
67547;HTU21D;54381;53.516;49.424;2022-10-31T07:40:42;4.20;68.67
67547;HTU21D;54381;53.516;49.424;2022-10-31T07:43:10;4.15;68.73
67547;HTU21D;54381;53.516;49.424;2022-10-31T07:45:36;4.26;68.41
67547;HTU21D;54381;53.516;49.424;2022-10-31T07:48:02;4.71;66.99
67547;HTU21D;54381;53.516;49.424;2022-10-31T07:50:31;5.04;65.56
67547;HTU21D;54381;53.516;49.424;2022-10-31T07:53:07;4.66;65.04
67547;HTU21D;54381;53.516;49.424;2022-10-31T07:55:34;4.61;65.27
67547;HTU21D;54381;53.516;49.424;2022-10-31T07:58:08;4.82;64.03
67547;HTU21D;54381;53.516;49.424;2022-10-31T08:00:38;5.26;61.05
67547;HTU21D;54381;53.516;49.424;2022-10-31T08:03:06;6.34;59.03
67547;HTU21D;54381;53.516;49.424;2022-10-31T08:05:34;6.12;60.50
67547;HTU21D;54381;53.516;49.424;2022-10-31T08:08:00;6.09;58.64
67547;HTU21D;54381;53.516;49.424;2022-10-31T08:10:27;5.68;61.84
67547;HTU21D;54381;53.516;49.424;2022-10-31T08:12:58;5.25;61.95
67547;HTU21D;54381;53.516;49.424;2022-10-31T08:15:25;4.96;64.12
67547;HTU21D;54381;53.516;49.424;2022-10-31T08:17:51;4.80;62.93
67547;HTU21D;54381;53.516;49.424;2022-10-31T08:20:18;4.69;63.99
67547;HTU21D;54381;53.516;49.424;2022-10-31T08:22:56;4.66;63.53
67547;HTU21D;54381;53.516;49.424;2022-10-31T08:25:22;4.89;63.56
67547;HTU21D;54381;53.516;49.424;2022-10-31T08:27:55;4.80;64.45
67547;HTU21D;54381;53.516;49.424;2022-10-31T08:30:24;4.72;63.37
67547;HTU21D;54381;53.516;49.424;2022-10-31T08:33:01;4.91;64.18
67547;HTU21D;54381;53.516;49.424;2022-10-31T08:35:28;4.93;63.96
67547;HTU21D;54381;53.516;49.424;2022-10-31T08:37:55;4.88;62.89
67547;HTU21D;54381;53.516;49.424;2022-10-31T08:40:22;4.90;65.05
67547;HTU21D;54381;53.516;49.424;2022-10-31T08:43:02;5.01;63.52
67547;HTU21D;54381;53.516;49.424;2022-10-31T08:45:30;5.27;61.28
67547;HTU21D;54381;53.516;49.424;2022-10-31T08:48:00;4.93;63.69
67547;HTU21D;54381;53.516;49.424;2022-10-31T08:50:28;4.90;64.51
67547;HTU21D;54381;53.516;49.424;2022-10-31T08:53:00;4.83;66.15
67547;HTU21D;54381;53.516;49.424;2022-10-31T08:55:26;4.92;63.53
67547;HTU21D;54381;53.516;49.424;2022-10-31T08:57:56;5.03;64.37
67547;HTU21D;54381;53.516;49.424;2022-10-31T09:00:23;5.22;63.02
67547;HTU21D;54381;53.516;49.424;2022-10-31T09:03:00;5.31;63.10
67547;HTU21D;54381;53.516;49.424;2022-10-31T09:05:27;5.30;62.73
67547;HTU21D;54381;53.516;49.424;2022-10-31T09:07:57;5.20;62.25
67547;HTU21D;54381;53.516;49.424;2022-10-31T09:10:25;5.22;60.03
67547;HTU21D;54381;53.516;49.424;2022-10-31T09:13:02;5.23;62.58
67547;HTU21D;54381;53.516;49.424;2022-10-31T09:15:35;5.09;60.92
67547;HTU21D;54381;53.516;49.424;2022-10-31T09:18:02;4.95;62.90
67547;HTU21D;54381;53.516;49.424;2022-10-31T09:20:30;4.90;62.43
67547;HTU21D;54381;53.516;49.424;2022-10-31T09:22:58;4.90;61.95
67547;HTU21D;54381;53.516;49.424;2022-10-31T09:25:25;5.00;62.50
67547;HTU21D;54381;53.516;49.424;2022-10-31T09:27:57;4.93;62.47
67547;HTU21D;54381;53.516;49.424;2022-10-31T09:30:25;4.78;62.95
67547;HTU21D;54381;53.516;49.424;2022-10-31T09:32:58;4.63;63.59
67547;HTU21D;54381;53.516;49.424;2022-10-31T09:35:25;4.38;64.99
67547;HTU21D;54381;53.516;49.424;2022-10-31T09:38:02;4.32;66.65
67547;HTU21D;54381;53.516;49.424;2022-10-31T09:40:43;4.26;65.38
67547;HTU21D;54381;53.516;49.424;2022-10-31T09:48:50;4.06;62.92
67547;HTU21D;54381;53.516;49.424;2022-10-31T09:51:24;4.10;63.72
67547;HTU21D;54381;53.516;49.424;2022-10-31T09:53:57;4.08;64.76
67547;HTU21D;54381;53.516;49.424;2022-10-31T09:56:26;4.13;61.90
67547;HTU21D;54381;53.516;49.424;2022-10-31T09:58:55;4.20;62.12
67547;HTU21D;54381;53.516;49.424;2022-10-31T10:01:55;4.21;60.85
67547;HTU21D;54381;53.516;49.424;2022-10-31T10:04:32;4.22;61.08
67547;HTU21D;54381;53.516;49.424;2022-10-31T10:07:03;4.27;59.66
67547;HTU21D;54381;53.516;49.424;2022-10-31T10:09:31;4.42;60.48
67547;HTU21D;54381;53.516;49.424;2022-10-31T10:17:36;4.56;58.68
67547;HTU21D;54381;53.516;49.424;2022-10-31T10:20:28;4.64;58.25
67547;HTU21D;54381;53.516;49.424;2022-10-31T10:25:43;4.62;58.24
67547;HTU21D;54381;53.516;49.424;2022-10-31T10:30:59;4.29;59.18
67547;HTU21D;54381;53.516;49.424;2022-10-31T10:36:54;4.26;61.37
67547;HTU21D;54381;53.516;49.424;2022-10-31T10:39:24;4.31;61.25
67547;HTU21D;54381;53.516;49.424;2022-10-31T10:41:51;4.26;61.04
67547;HTU21D;54381;53.516;49.424;2022-10-31T10:44:39;4.21;61.41
67547;HTU21D;54381;53.516;49.424;2022-10-31T10:47:36;4.29;60.44
67547;HTU21D;54381;53.516;49.424;2022-10-31T10:50:16;4.28;61.18
67547;HTU21D;54381;53.516;49.424;2022-10-31T10:53:07;4.34;60.70
67547;HTU21D;54381;53.516;49.424;2022-10-31T10:56:13;4.42;61.40
67547;HTU21D;54381;53.516;49.424;2022-10-31T10:58:41;4.54;62.70
67547;HTU21D;54381;53.516;49.424;2022-10-31T11:01:17;4.56;60.73
67547;HTU21D;54381;53.516;49.424;2022-10-31T11:03:43;4.33;58.00
67547;HTU21D;54381;53.516;49.424;2022-10-31T11:06:21;4.18;59.09
67547;HTU21D;54381;53.516;49.424;2022-10-31T11:08:52;4.17;59.88
67547;HTU21D;54381;53.516;49.424;2022-10-31T11:11:26;4.12;61.12
67547;HTU21D;54381;53.516;49.424;2022-10-31T11:14:12;4.03;59.33
67547;HTU21D;54381;53.516;49.424;2022-10-31T11:16:42;4.00;59.69
67547;HTU21D;54381;53.516;49.424;2022-10-31T11:21:38;4.17;59.89
67547;HTU21D;54381;53.516;49.424;2022-10-31T11:26:40;4.36;59.60
67547;HTU21D;54381;53.516;49.424;2022-10-31T11:29:21;4.38;59.51
67547;HTU21D;54381;53.516;49.424;2022-10-31T11:31:50;4.41;59.26
67547;HTU21D;54381;53.516;49.424;2022-10-31T11:34:30;4.37;59.08
67547;HTU21D;54381;53.516;49.424;2022-10-31T11:39:55;4.29;59.07
67547;HTU21D;54381;53.516;49.424;2022-10-31T11:42:27;4.30;58.38
67547;HTU21D;54381;53.516;49.424;2022-10-31T11:44:54;4.30;60.99
67547;HTU21D;54381;53.516;49.424;2022-10-31T11:47:27;4.28;58.99
67547;HTU21D;54381;53.516;49.424;2022-10-31T11:49:57;4.23;59.20
67547;HTU21D;54381;53.516;49.424;2022-10-31T11:52:29;4.17;58.37
67547;HTU21D;54381;53.516;49.424;2022-10-31T11:55:13;4.16;60.09
67547;HTU21D;54381;53.516;49.424;2022-10-31T11:57:47;4.12;59.90
67547;HTU21D;54381;53.516;49.424;2022-10-31T12:00:26;4.04;59.61
67547;HTU21D;54381;53.516;49.424;2022-10-31T12:05:33;3.95;60.64
67547;HTU21D;54381;53.516;49.424;2022-10-31T12:07:59;3.94;61.10
67547;HTU21D;54381;53.516;49.424;2022-10-31T12:10:43;3.95;62.57
67547;HTU21D;54381;53.516;49.424;2022-10-31T12:13:32;3.89;63.22
67547;HTU21D;54381;53.516;49.424;2022-10-31T12:16:06;3.92;65.10
67547;HTU21D;54381;53.516;49.424;2022-10-31T12:18:55;3.83;63.48
67547;HTU21D;54381;53.516;49.424;2022-10-31T12:21:34;3.74;64.92
67547;HTU21D;54381;53.516;49.424;2022-10-31T12:24:35;3.72;66.36
67547;HTU21D;54381;53.516;49.424;2022-10-31T12:27:29;3.62;65.92
67547;HTU21D;54381;53.516;49.424;2022-10-31T12:35:51;3.57;67.40
67547;HTU21D;54381;53.516;49.424;2022-10-31T12:41:24;3.53;66.47
67547;HTU21D;54381;53.516;49.424;2022-10-31T12:44:01;3.52;66.66
67547;HTU21D;54381;53.516;49.424;2022-10-31T12:49:51;3.44;66.33
67547;HTU21D;54381;53.516;49.424;2022-10-31T13:00:51;3.47;67.51
67547;HTU21D;54381;53.516;49.424;2022-10-31T13:03:38;3.40;68.23
67547;HTU21D;54381;53.516;49.424;2022-10-31T13:06:09;3.36;66.97
67547;HTU21D;54381;53.516;49.424;2022-10-31T13:08:41;3.40;68.90
67547;HTU21D;54381;53.516;49.424;2022-10-31T13:11:17;3.33;68.17
67547;HTU21D;54381;53.516;49.424;2022-10-31T13:14:34;3.32;70.29
67547;HTU21D;54381;53.516;49.424;2022-10-31T13:16:53;3.33;68.62
67547;HTU21D;54381;53.516;49.424;2022-10-31T13:19:43;3.31;68.65
67547;HTU21D;54381;53.516;49.424;2022-10-31T13:22:14;3.28;68.37
67547;HTU21D;54381;53.516;49.424;2022-10-31T13:24:59;3.23;68.37
67547;HTU21D;54381;53.516;49.424;2022-10-31T13:27:29;3.24;69.24
67547;HTU21D;54381;53.516;49.424;2022-10-31T13:30:19;3.23;69.13
67547;HTU21D;54381;53.516;49.424;2022-10-31T13:33:03;3.19;69.75
67547;HTU21D;54381;53.516;49.424;2022-10-31T13:41:27;3.20;71.13
67547;HTU21D;54381;53.516;49.424;2022-10-31T13:44:26;3.19;71.18
67547;HTU21D;54381;53.516;49.424;2022-10-31T13:46:54;3.19;69.20
67547;HTU21D;54381;53.516;49.424;2022-10-31T13:52:24;3.15;69.67
67547;HTU21D;54381;53.516;49.424;2022-10-31T13:54:53;3.14;70.63
67547;HTU21D;54381;53.516;49.424;2022-10-31T13:59:56;3.10;69.76
67547;HTU21D;54381;53.516;49.424;2022-10-31T14:02:29;3.01;69.97
67547;HTU21D;54381;53.516;49.424;2022-10-31T14:05:02;2.99;70.29
67547;HTU21D;54381;53.516;49.424;2022-10-31T14:07:29;2.94;70.97
67547;HTU21D;54381;53.516;49.424;2022-10-31T14:15:22;2.89;71.33
67547;HTU21D;54381;53.516;49.424;2022-10-31T14:17:54;2.94;71.25
67547;HTU21D;54381;53.516;49.424;2022-10-31T14:22:48;2.97;71.56
67547;HTU21D;54381;53.516;49.424;2022-10-31T14:25:28;2.95;71.33
67547;HTU21D;54381;53.516;49.424;2022-10-31T14:27:56;2.94;71.58
67547;HTU21D;54381;53.516;49.424;2022-10-31T14:30:25;2.94;72.32
67547;HTU21D;54381;53.516;49.424;2022-10-31T14:36:01;2.99;73.12
67547;HTU21D;54381;53.516;49.424;2022-10-31T14:39:02;2.95;71.17
67547;HTU21D;54381;53.516;49.424;2022-10-31T14:42:04;2.93;70.39
67547;HTU21D;54381;53.516;49.424;2022-10-31T14:44:49;2.94;70.51
67547;HTU21D;54381;53.516;49.424;2022-10-31T14:50:09;2.94;70.22
67547;HTU21D;54381;53.516;49.424;2022-10-31T14:52:38;2.93;71.12
67547;HTU21D;54381;53.516;49.424;2022-10-31T14:55:07;2.90;70.75
67547;HTU21D;54381;53.516;49.424;2022-10-31T14:57:38;2.90;71.45
67547;HTU21D;54381;53.516;49.424;2022-10-31T15:00:19;2.89;72.08
67547;HTU21D;54381;53.516;49.424;2022-10-31T15:03:22;2.89;70.87
67547;HTU21D;54381;53.516;49.424;2022-10-31T15:05:59;2.89;71.07
67547;HTU21D;54381;53.516;49.424;2022-10-31T15:11:20;2.86;70.58
67547;HTU21D;54381;53.516;49.424;2022-10-31T15:13:56;2.85;71.13
67547;HTU21D;54381;53.516;49.424;2022-10-31T15:16:27;2.82;70.29
67547;HTU21D;54381;53.516;49.424;2022-10-31T15:21:22;2.80;69.90
67547;HTU21D;54381;53.516;49.424;2022-10-31T15:23:52;2.81;69.30
67547;HTU21D;54381;53.516;49.424;2022-10-31T15:26:21;2.79;69.71
67547;HTU21D;54381;53.516;49.424;2022-10-31T15:28:58;2.84;70.16
67547;HTU21D;54381;53.516;49.424;2022-10-31T15:31:25;2.86;69.53
67547;HTU21D;54381;53.516;49.424;2022-10-31T15:33:53;2.83;68.63
67547;HTU21D;54381;53.516;49.424;2022-10-31T15:36:22;2.81;68.26
67547;HTU21D;54381;53.516;49.424;2022-10-31T15:38:49;2.82;67.15
67547;HTU21D;54381;53.516;49.424;2022-10-31T15:44:14;2.78;66.90
67547;HTU21D;54381;53.516;49.424;2022-10-31T15:46:41;2.71;67.85
67547;HTU21D;54381;53.516;49.424;2022-10-31T15:52:01;2.80;68.61
67547;HTU21D;54381;53.516;49.424;2022-10-31T15:54:28;2.76;67.04
67547;HTU21D;54381;53.516;49.424;2022-10-31T15:56:54;2.82;68.66
67547;HTU21D;54381;53.516;49.424;2022-10-31T15:59:23;2.81;69.60
67547;HTU21D;54381;53.516;49.424;2022-10-31T16:02:00;2.73;68.55
67547;HTU21D;54381;53.516;49.424;2022-10-31T16:04:26;2.73;69.42
67547;HTU21D;54381;53.516;49.424;2022-10-31T16:07:01;2.72;69.21
67547;HTU21D;54381;53.516;49.424;2022-10-31T16:09:28;2.72;68.52
67547;HTU21D;54381;53.516;49.424;2022-10-31T16:11:56;2.70;68.81
67547;HTU21D;54381;53.516;49.424;2022-10-31T16:14:26;2.71;69.59
67547;HTU21D;54381;53.516;49.424;2022-10-31T16:16:55;2.69;70.58
67547;HTU21D;54381;53.516;49.424;2022-10-31T16:22:01;2.65;69.42
67547;HTU21D;54381;53.516;49.424;2022-10-31T16:24:44;2.64;70.18
67547;HTU21D;54381;53.516;49.424;2022-10-31T16:27:19;2.56;69.64
67547;HTU21D;54381;53.516;49.424;2022-10-31T16:29:51;2.57;69.46
67547;HTU21D;54381;53.516;49.424;2022-10-31T16:32:34;2.58;69.38
67547;HTU21D;54381;53.516;49.424;2022-10-31T16:35:31;2.59;69.96
67547;HTU21D;54381;53.516;49.424;2022-10-31T16:37:58;2.61;70.44
67547;HTU21D;54381;53.516;49.424;2022-10-31T16:40:24;2.60;69.62
67547;HTU21D;54381;53.516;49.424;2022-10-31T16:42:51;2.64;69.64
67547;HTU21D;54381;53.516;49.424;2022-10-31T16:45:22;2.60;69.71
67547;HTU21D;54381;53.516;49.424;2022-10-31T16:47:49;2.59;70.55
67547;HTU21D;54381;53.516;49.424;2022-10-31T16:50:22;2.58;69.81
67547;HTU21D;54381;53.516;49.424;2022-10-31T16:52:49;2.58;71.10
67547;HTU21D;54381;53.516;49.424;2022-10-31T16:55:17;2.58;69.64
67547;HTU21D;54381;53.516;49.424;2022-10-31T16:57:50;2.59;70.19
67547;HTU21D;54381;53.516;49.424;2022-10-31T17:00:23;2.60;70.69
67547;HTU21D;54381;53.516;49.424;2022-10-31T17:02:51;2.61;70.89
67547;HTU21D;54381;53.516;49.424;2022-10-31T17:05:19;2.58;70.68
67547;HTU21D;54381;53.516;49.424;2022-10-31T17:07:45;2.59;70.53
67547;HTU21D;54381;53.516;49.424;2022-10-31T17:10:13;2.58;71.43
67547;HTU21D;54381;53.516;49.424;2022-10-31T17:12:42;2.59;70.11
67547;HTU21D;54381;53.516;49.424;2022-10-31T17:15:24;2.61;70.81
67547;HTU21D;54381;53.516;49.424;2022-10-31T17:17:51;2.59;70.31
67547;HTU21D;54381;53.516;49.424;2022-10-31T17:20:29;2.58;70.35
67547;HTU21D;54381;53.516;49.424;2022-10-31T17:22:57;2.58;70.23
67547;HTU21D;54381;53.516;49.424;2022-10-31T17:25:26;2.58;71.21
67547;HTU21D;54381;53.516;49.424;2022-10-31T17:27:52;2.57;71.02
67547;HTU21D;54381;53.516;49.424;2022-10-31T17:30:20;2.55;71.32
67547;HTU21D;54381;53.516;49.424;2022-10-31T17:32:48;2.56;70.73
67547;HTU21D;54381;53.516;49.424;2022-10-31T17:35:15;2.57;71.92
67547;HTU21D;54381;53.516;49.424;2022-10-31T17:37:43;2.57;72.80
67547;HTU21D;54381;53.516;49.424;2022-10-31T17:40:10;2.58;70.76
67547;HTU21D;54381;53.516;49.424;2022-10-31T17:42:37;2.57;70.97
67547;HTU21D;54381;53.516;49.424;2022-10-31T17:45:04;2.56;70.61
67547;HTU21D;54381;53.516;49.424;2022-10-31T17:47:31;2.53;71.55
67547;HTU21D;54381;53.516;49.424;2022-10-31T17:49:58;2.54;70.51
67547;HTU21D;54381;53.516;49.424;2022-10-31T17:52:24;2.51;70.79
67547;HTU21D;54381;53.516;49.424;2022-10-31T17:54:50;2.52;71.16
67547;HTU21D;54381;53.516;49.424;2022-10-31T17:57:16;2.52;71.21
67547;HTU21D;54381;53.516;49.424;2022-10-31T17:59:42;2.54;72.30
67547;HTU21D;54381;53.516;49.424;2022-10-31T18:02:11;2.52;71.71
67547;HTU21D;54381;53.516;49.424;2022-10-31T18:04:37;2.53;71.55
67547;HTU21D;54381;53.516;49.424;2022-10-31T18:07:24;2.49;71.68
67547;HTU21D;54381;53.516;49.424;2022-10-31T18:12:54;2.54;71.25
67547;HTU21D;54381;53.516;49.424;2022-10-31T18:15:20;2.53;71.65
67547;HTU21D;54381;53.516;49.424;2022-10-31T18:17:46;2.56;71.70
67547;HTU21D;54381;53.516;49.424;2022-10-31T18:20:12;2.56;72.96